National Weather Service Raw Text Product

Displaying AFOS PIL: TAFDSM Received: 2017-10-13 11:38 UTC


699 
FTUS43 KDMX 131138
TAFDSM
TAF
KDSM 131138Z 1312/1412 08006KT P6SM FEW004 BKN050
     FM131400 04006KT P6SM BKN035
     FM132000 04008KT P6SM VCSH OVC016
     FM140000 04008KT P6SM VCTS OVC008CB
     FM140600 05006KT P6SM OVC006
     FM141000 05005KT 5SM -SHRA VCTS OVC006CB=